Latest Coastal Weather Observations for Portland Harbour

IDS60701

Issued at 8:21 am CST Sunday 26 June 2022 (issued every 10 minutes, with the page automatically refreshed every 10 minutes)

About coastal observations | Map of coastal stations | Coastal observations for SA | Marine services | Other Formats
Station Details ID: 090192 Name: PORTLAND NTC AWS Lat: -38.34 Lon: 141.61 Height: 0.0 m
Data from the previous 72 hours. | See also: Recent months for locations in South Australia
Date/Time
CST
Wind Sea
Height
m
Swell Vis
km
Cloud Weather Temp
°C
Press
MSL
hPa
Rain since
9am
mm
Dir  Spd
kts
Gust
kts
Height
m
Period
s
Dir
26/08:00am WSW 7 11 - - - - - - - 11.8 1023.3 -
26/07:30am WSW 8 14 - - - - - - - 11.5 1023.0 -
26/07:00am WSW 7 10 - - - - - - - 11.8 1022.3 -
26/06:30am WSW 9 16 - - - - - - - 12.0 1021.8 -
26/06:00am WSW 6 9 - - - - - - - 11.9 1021.3 -
26/05:30am SW 7 10 - - - - - - - 11.9 1020.9 -
26/05:00am SW 6 9 - - - - - - - 12.1 1020.6 -
26/04:30am WSW 5 8 - - - - - - - 11.9 1020.3 -
26/04:00am W 6 12 - - - - - - - 11.0 1020.1 -
26/03:30am WNW 5 7 - - - - - - - 11.0 1019.9 -
26/03:00am WNW 6 10 - - - - - - - 11.2 1019.6 -
26/02:30am W 5 9 - - - - - - - 11.2 1019.6 -
26/02:00am WSW 12 17 - - - - - - - 11.0 1019.6 -
26/01:30am W 10 15 - - - - - - - 11.4 1019.3 -
26/01:00am WSW 5 8 - - - - - - - 11.4 1019.1 -
26/12:30am NW 9 15 - - - - - - - 11.5 1018.7 -
26/12:00am NNW 9 14 - - - - - - - 11.4 1018.8 -
 
Date/Time
CST
Wind Sea
Height
m
Swell Vis
km
Cloud Weather Temp
°C
Press
MSL
hPa
Rain since
9am
mm
Dir  Spd
kts
Gust
kts
Height
m
Period
s
Dir
25/11:30pm NW 9 13 - - - - - - - 11.6 1018.8 -
25/11:00pm NW 11 16 - - - - - - - 12.0 1018.6 -
25/10:30pm WNW 10 15 - - - - - - - 12.1 1018.3 -
25/10:00pm WNW 11 16 - - - - - - - 11.9 1018.5 -
25/09:30pm NW 10 14 - - - - - - - 12.1 1018.4 -
25/09:00pm NW 9 13 - - - - - - - 12.1 1018.2 -
25/08:30pm NW 10 15 - - - - - - - 12.1 1018.1 -
25/08:00pm NW 11 17 - - - - - - - 12.3 1017.7 -
25/07:30pm NW 12 20 - - - - - - - 12.4 1017.5 -
25/07:00pm NW 9 17 - - - - - - - 13.2 1017.5 -
25/06:30pm NW 10 16 - - - - - - - 13.2 1017.1 -
25/06:00pm NW 9 13 - - - - - - - 13.0 1017.0 -
25/05:30pm NW 12 18 - - - - - - - 13.1 1016.7 -
25/05:00pm NW 11 17 - - - - - - - 13.1 1016.5 -
25/04:30pm NW 11 19 - - - - - - - 13.3 1016.2 -
25/04:00pm WNW 16 27 - - - - - - - 13.4 1016.2 -
25/03:56pm WNW 15 26 - - - - - - - 14.1 1016.3 -
25/03:30pm WNW 14 21 - - - - - - - 14.9 1016.0 -
25/03:00pm WNW 16 24 - - - - - - - 15.1 1015.9 -
25/02:30pm WNW 17 27 - - - - - - - 15.3 1016.0 -
25/02:08pm WNW 17 27 - - - - - - - 15.0 1015.9 -
25/02:00pm WNW 17 24 - - - - - - - 15.1 1015.9 -
25/01:30pm WNW 18 25 - - - - - - - 14.8 1016.3 -
25/01:20pm WNW 17 28 - - - - - - - 14.7 1016.3 -
25/01:00pm WNW 15 21 - - - - - - - 14.4 1016.5 -
25/12:30pm WNW 14 19 - - - - - - - 13.3 1017.0 -
25/12:00pm NW 14 18 - - - - - - - 14.2 1016.9 -
25/11:30am NW 13 19 - - - - - - - 14.0 1017.1 -
25/11:00am NW 12 17 - - - - - - - 13.7 1017.4 -
25/10:30am NW 12 18 - - - - - - - 13.1 1017.4 -
25/10:00am NW 11 17 - - - - - - - 12.1 1017.6 -
25/09:30am NW 10 14 - - - - - - - 12.3 1017.1 -
25/09:00am NNW 10 17 - - - - - - - 11.5 1016.9 -
25/08:30am NNW 10 13 - - - - - - - 10.8 1016.8 -
25/08:00am NNW 10 14 - - - - - - - 10.3 1016.5 -
25/07:30am NNW 11 15 - - - - - - - 10.4 1016.5 -
25/07:00am NNW 9 13 - - - - - - - 10.5 1016.3 -
25/06:30am NW 7 11 - - - - - - - 10.7 1016.1 -
25/06:00am NNW 7 11 - - - - - - - 10.4 1015.7 -
25/05:30am NNW 9 16 - - - - - - - 10.3 1015.6 -
25/05:00am NNW 8 12 - - - - - - - 10.4 1015.4 -
25/04:30am NNW 9 13 - - - - - - - 10.3 1015.3 -
25/04:00am NNW 9 14 - - - - - - - 10.1 1015.1 -
25/03:30am NW 10 15 - - - - - - - 10.6 1015.0 -
25/03:00am NW 10 16 - - - - - - - 10.8 1015.0 -
25/02:30am NW 10 13 - - - - - - - 10.6 1015.1 -
25/02:00am NW 10 16 - - - - - - - 10.5 1015.4 -
25/01:30am NW 8 13 - - - - - - - 10.3 1015.3 -
25/01:00am NNW 11 15 - - - - - - - 10.3 1015.2 -
25/12:30am NNW 9 14 - - - - - - - 10.3 1015.5 -
25/12:00am NNW 10 15 - - - - - - - 10.4 1015.6 -
 
Date/Time
CST
Wind Sea
Height
m
Swell Vis
km
Cloud Weather Temp
°C
Press
MSL
hPa
Rain since
9am
mm
Dir  Spd
kts
Gust
kts
Height
m
Period
s
Dir
24/11:30pm NNW 9 12 - - - - - - - 10.3 1016.0 -
24/11:00pm NNW 12 16 - - - - - - - 10.3 1015.8 -
24/10:30pm NNW 10 15 - - - - - - - 10.3 1015.8 -
24/10:00pm NNW 11 15 - - - - - - - 10.6 1015.8 -
24/09:30pm NNW 9 14 - - - - - - - 10.6 1016.2 -
24/09:00pm NNW 11 14 - - - - - - - 10.8 1016.1 -
24/08:30pm NNW 8 11 - - - - - - - 10.8 1016.1 -
24/08:00pm NW 6 11 - - - - - - - 10.9 1016.1 -
24/07:30pm WNW 4 7 - - - - - - - 10.9 1016.2 -
24/07:00pm WNW 3 5 - - - - - - - 11.1 1016.1 -
24/06:30pm NW 7 12 - - - - - - - 11.3 1015.9 -
24/06:00pm NW 7 13 - - - - - - - 11.4 1015.5 -
24/05:30pm NNW 6 9 - - - - - - - 11.8 1015.3 -
24/05:00pm NW 7 10 - - - - - - - 12.0 1015.2 -
24/04:30pm W 8 11 - - - - - - - 13.0 1015.0 -
24/04:00pm W 7 11 - - - - - - - 13.6 1014.9 -
24/03:30pm W 8 12 - - - - - - - 13.6 1014.7 -
24/03:00pm WSW 9 14 - - - - - - - 13.7 1014.7 -
24/02:30pm W 10 18 - - - - - - - 13.4 1014.6 -
24/02:00pm W 10 16 - - - - - - - 14.1 1014.4 -
24/01:30pm W 12 18 - - - - - - - 14.3 1014.4 -
24/01:00pm W 13 18 - - - - - - - 14.0 1014.6 -
24/12:30pm WSW 14 19 - - - - - - - 13.7 1014.7 -
24/12:00pm WSW 15 19 - - - - - - - 14.0 1015.0 -
24/11:30am W 14 21 - - - - - - - 14.0 1014.9 -
24/11:00am W 8 13 - - - - - - - 12.8 1015.3 -
24/10:30am WSW 15 25 - - - - - - - 13.2 1015.2 -
24/10:28am WSW 15 25 - - - - - - - 13.2 1015.2 -
24/10:00am WSW 10 14 - - - - - - - 13.3 1015.0 -
24/09:30am W 11 16 - - - - - - - 14.1 1014.6 -
24/09:00am W 10 16 - - - - - - - 13.7 1014.4 -
24/08:30am W 7 10 - - - - - - - 12.8 1014.2 -
24/08:00am W 9 17 - - - - - - - 12.9 1013.9 -
24/07:30am W 7 10 - - - - - - - 12.6 1013.7 -
24/07:00am W 8 14 - - - - - - - 12.7 1013.3 -
24/06:30am W 10 16 - - - - - - - 12.5 1013.0 -
24/06:00am W 10 17 - - - - - - - 12.8 1012.5 -
24/05:30am WSW 12 18 - - - - - - - 12.9 1012.1 -
24/05:00am W 12 18 - - - - - - - 13.1 1011.8 -
24/04:30am WSW 13 19 - - - - - - - 12.6 1011.6 -
24/04:00am WSW 15 24 - - - - - - - 12.8 1011.3 -
24/03:55am W 15 25 - - - - - - - 12.9 1011.2 -
24/03:30am W 9 13 - - - - - - - 13.1 1010.9 -
24/03:00am WNW 9 12 - - - - - - - 12.6 1010.9 -
24/02:30am WNW 9 13 - - - - - - - 12.5 1010.8 -
24/02:00am WNW 7 11 - - - - - - - 12.2 1011.0 -
24/01:30am NNW 7 11 - - - - - - - 12.4 1010.7 -
24/01:00am NNW 8 12 - - - - - - - 12.4 1010.6 -
24/12:30am NNW 7 10 - - - - - - - 12.5 1010.7 -
24/12:00am NNW 6 8 - - - - - - - 12.6 1011.1 -
 
Date/Time
CST
Wind Sea
Height
m
Swell Vis
km
Cloud Weather Temp
°C
Press
MSL
hPa
Rain since
9am
mm
Dir  Spd
kts
Gust
kts
Height
m
Period
s
Dir
23/11:30pm NW 2 5 - - - - - - - 12.2 1011.1 -
23/11:00pm WNW 3 8 - - - - - - - 12.1 1011.0 -
23/10:30pm WSW 9 12 - - - - - - - 12.1 1011.5 -
23/10:00pm SW 12 19 - - - - - - - 12.2 1011.8 -
23/09:30pm NW 15 24 - - - - - - - 15.1 1011.0 -
23/09:02pm NW 16 26 - - - - - - - 15.1 1010.6 -
23/09:00pm NNW 16 25 - - - - - - - 15.0 1010.7 -
23/08:30pm NW 16 22 - - - - - - - 14.9 1010.6 -
23/08:11pm NNW 16 26 - - - - - - - 14.9 1010.6 -
23/08:00pm NNW 17 24 - - - - - - - 14.9 1010.8 -
23/07:30pm NNW 15 22 - - - - - - - 15.0 1011.3 -
23/07:00pm NNW 16 24 - - - - - - - 15.2 1011.5 -
23/06:30pm NNW 16 22 - - - - - - - 15.3 1011.7 -
23/06:00pm NNW 13 17 - - - - - - - 15.3 1011.9 -
23/05:30pm NNW 11 16 - - - - - - - 15.5 1012.4 -
23/05:00pm NNW 11 15 - - - - - - - 15.6 1012.5 -
23/04:30pm NNW 12 17 - - - - - - - 15.9 1012.6 -
23/04:00pm NNW 11 16 - - - - - - - 16.1 1012.9 -
23/03:30pm NNW 12 20 - - - - - - - 16.1 1013.0 -
23/03:00pm NW 13 19 - - - - - - - 16.2 1013.1 -
23/02:30pm NW 13 22 - - - - - - - 16.2 1013.1 -
23/02:00pm NW 14 23 - - - - - - - 16.2 1013.5 -
23/01:30pm NW 14 21 - - - - - - - 16.1 1013.8 -
23/01:00pm NW 16 22 - - - - - - - 16.0 1014.2 -
23/12:32pm NW 15 26 - - - - - - - 15.7 1014.7 -
23/12:30pm NW 15 24 - - - - - - - 15.7 1014.8 -
23/12:00pm NW 15 21 - - - - - - - 15.4 1015.6 -
23/11:30am NW 14 22 - - - - - - - 15.1 1016.2 -
23/11:10am NW 15 27 - - - - - - - 14.9 1016.3 -
23/11:00am NNW 15 22 - - - - - - - 14.7 1016.6 -
23/10:30am NNW 17 27 - - - - - - - 14.3 1017.0 -
23/10:25am NNW 17 27 - - - - - - - 14.3 1017.0 -
23/10:00am NW 18 26 - - - - - - - 14.1 1017.3 -
23/09:30am NW 18 28 - - - - - - - 13.9 1017.4 -
23/09:20am NNW 18 29 - - - - - - - 13.9 1017.6 -
23/09:00am NNW 16 23 - - - - - - - 13.9 1017.6 -
23/08:30am NW 15 26 - - - - - - - 13.8 1017.9 -
23/08:19am NNW 15 28 - - - - - - - 13.7 1017.9 -
23/08:00am NNW 14 24 - - - - - - - 13.5 1018.2 -

Other formats

Comma delimited format used in spreadsheet applications
http://www.bom.gov.au/fwo/IDS60701/IDS60701.95826.axf

JavaScript Object Notation format (JSON) in row-major order
http://www.bom.gov.au/fwo/IDS60701/IDS60701.95826.json

Data quality

Most of these data are generated automatically and are frequently updated. Quality checks on data are not normally performed. It is possible for incorrect values to appear. Refer to information at About Latest Weather Observations and please check the disclaimer before using these data.